Time;durP1;ratioP1;P1;durP2;ratioP2;P2;SDS_P1;SDS_P2;PMS_P1;PMS_P2;Temp;Humidity;BMP_temperature;BMP_pressure;BME280_temperature;BME280_humidity;BME280_pressure;Samples;Min_cycle;Max_cycle;Signal;HPM_P1;HPM_P2
2021/08/02 00:00:48;;;;;;;4.43;3.15;;;21.70;99.90;;;;;;5001364;28;20042;-66
2021/08/02 00:03:25;;;;;;;3.28;2.97;;;21.70;99.90;;;;;;5005614;28;20388;-65
2021/08/02 00:05:56;;;;;;;3.40;3.10;;;21.70;99.90;;;;;;4960664;28;20325;-65
2021/08/02 00:08:23;;;;;;;4.10;2.85;;;21.70;99.90;;;;;;5003615;28;20030;-65
2021/08/02 00:10:50;;;;;;;3.00;2.80;;;21.70;99.90;;;;;;5001069;28;20065;-65
2021/08/02 00:13:31;;;;;;;4.22;3.45;;;21.60;99.90;;;;;;5011167;28;20033;-64
2021/08/02 00:16:03;;;;;;;3.47;3.15;;;21.60;99.90;;;;;;5026088;28;20044;-65
2021/08/02 00:18:31;;;;;;;3.42;3.08;;;21.60;99.90;;;;;;5027794;28;20130;-65
2021/08/02 00:21:01;;;;;;;4.57;3.22;;;21.70;99.90;;;;;;5026211;28;20053;-65
2021/08/02 00:23:28;;;;;;;4.63;3.60;;;21.70;99.90;;;;;;5025497;28;20538;-65
2021/08/02 00:25:57;;;;;;;3.97;3.40;;;21.80;99.90;;;;;;5009486;28;20513;-65
2021/08/02 00:28:23;;;;;;;3.67;3.00;;;21.80;99.90;;;;;;5025971;28;20041;-65
2021/08/02 00:30:51;;;;;;;3.40;3.10;;;21.80;99.90;;;;;;5012458;28;20041;-65
2021/08/02 00:33:17;;;;;;;3.90;3.10;;;21.80;99.90;;;;;;5008447;28;20057;-65
2021/08/02 00:35:55;;;;;;;4.07;3.03;;;21.80;99.90;;;;;;5018364;28;20053;-65
2021/08/02 00:38:31;;;;;;;3.13;2.83;;;21.70;99.90;;;;;;4969621;28;20033;-66
2021/08/02 00:41:21;;;;;;;3.22;2.85;;;21.70;99.90;;;;;;5023231;28;20045;-65
2021/08/02 00:44:24;;;;;;;2.53;2.33;;;21.80;99.90;;;;;;5006194;28;20049;-65
2021/08/02 00:46:56;;;;;;;5.25;2.90;;;21.70;99.90;;;;;;5011560;28;20435;-65
2021/08/02 00:49:25;;;;;;;3.22;2.92;;;21.80;99.90;;;;;;5027082;28;20029;-65
2021/08/02 00:51:52;;;;;;;3.45;2.85;;;21.80;99.90;;;;;;5021508;28;20129;-65
2021/08/02 00:54:20;;;;;;;4.28;3.13;;;21.80;99.90;;;;;;5012697;28;20046;-65
2021/08/02 00:56:49;;;;;;;4.72;3.92;;;21.90;99.90;;;;;;5018685;28;20049;-65
2021/08/02 00:59:14;;;;;;;4.20;3.80;;;21.80;99.90;;;;;;5009939;28;20037;-65
2021/08/02 01:01:43;;;;;;;4.05;3.72;;;21.70;99.90;;;;;;5002565;28;20056;-66
2021/08/02 01:04:11;;;;;;;6.68;4.47;;;21.80;99.90;;;;;;5012205;28;20032;-65
2021/08/02 01:06:37;;;;;;;5.32;3.95;;;21.80;99.90;;;;;;5023673;28;20037;-65
2021/08/02 01:09:05;;;;;;;6.05;4.13;;;21.70;99.90;;;;;;5026565;28;20045;-65
2021/08/02 01:11:35;;;;;;;5.78;4.68;;;21.70;99.90;;;;;;5024389;28;20099;-65
2021/08/02 01:14:06;;;;;;;5.50;5.00;;;21.70;99.90;;;;;;5008543;28;20501;-65
2021/08/02 01:16:34;;;;;;;5.38;4.57;;;21.60;99.90;;;;;;5025163;28;20030;-66
2021/08/02 01:19:09;;;;;;;5.20;4.22;;;21.70;99.90;;;;;;5024664;28;20084;-65
2021/08/02 01:21:40;;;;;;;5.55;4.75;;;21.70;99.90;;;;;;5022775;28;20037;-65
2021/08/02 01:24:12;;;;;;;5.28;4.53;;;21.60;99.90;;;;;;5008383;28;20037;-65
2021/08/02 01:26:43;;;;;;;6.03;3.97;;;21.70;99.90;;;;;;5028818;28;20034;-65
2021/08/02 01:29:46;;;;;;;5.00;4.50;;;21.70;99.90;;;;;;5007158;28;20069;-65
2021/08/02 01:32:17;;;;;;;5.63;4.75;;;21.70;99.90;;;;;;4990852;28;20502;-66
2021/08/02 01:34:52;;;;;;;6.00;5.32;;;21.70;99.90;;;;;;5026217;28;20053;-65
2021/08/02 01:37:17;;;;;;;6.30;5.32;;;21.60;99.90;;;;;;5018274;28;20045;-64
2021/08/02 01:39:49;;;;;;;6.10;4.93;;;21.60;99.90;;;;;;5011286;28;20045;-65
2021/08/02 01:42:14;;;;;;;7.55;5.22;;;21.60;99.90;;;;;;5008642;28;20042;-65
2021/08/02 01:48:48;;;;;;;6.65;5.57;;;21.70;99.90;;;;;;4968052;28;20120;-64
2021/08/02 01:51:24;;;;;;;8.70;6.28;;;21.70;99.90;;;;;;4982104;28;20041;-65
2021/08/02 01:54:02;;;;;;;6.75;5.43;;;21.60;99.90;;;;;;5014623;28;20038;-65
2021/08/02 01:57:10;;;;;;;7.07;6.30;;;21.60;99.90;;;;;;5026088;28;20043;-65
2021/08/02 01:59:40;;;;;;;9.23;7.30;;;21.60;99.90;;;;;;4985408;28;20052;-65
2021/08/02 02:02:13;;;;;;;7.45;6.70;;;21.70;99.90;;;;;;5026172;28;20454;-65
2021/08/02 02:05:05;;;;;;;7.55;6.85;;;21.60;99.90;;;;;;5014725;28;20392;-65
2021/08/02 02:07:41;;;;;;;9.93;7.65;;;21.60;99.90;;;;;;4983024;28;20040;-65
2021/08/02 02:10:07;;;;;;;10.48;7.72;;;21.60;99.90;;;;;;5021543;28;20095;-65
2021/08/02 02:12:33;;;;;;;8.48;7.60;;;21.60;99.90;;;;;;5028572;28;20471;-65
2021/08/02 02:15:01;;;;;;;7.93;7.05;;;21.60;99.90;;;;;;5011398;28;20080;-65
2021/08/02 02:17:27;;;;;;;8.13;7.32;;;21.60;99.90;;;;;;5022971;28;20038;-65
2021/08/02 02:20:45;;;;;;;10.50;7.28;;;21.60;99.90;;;;;;4989127;28;20577;-65
2021/08/02 02:23:15;;;;;;;9.95;7.40;;;21.60;99.90;;;;;;4992168;28;20112;-65
2021/08/02 02:25:47;;;;;;;8.50;7.65;;;21.60;99.90;;;;;;5023162;28;20077;-66
2021/08/02 02:28:14;;;;;;;9.60;7.05;;;21.60;99.90;;;;;;5008758;28;20094;-66
2021/08/02 02:30:41;;;;;;;9.48;7.93;;;21.50;99.90;;;;;;5018445;28;20171;-65
2021/08/02 02:33:09;;;;;;;9.68;8.00;;;21.50;99.90;;;;;;5025692;28;20034;-66
2021/08/02 02:35:40;;;;;;;9.10;7.30;;;21.50;99.90;;;;;;5020536;28;20045;-65
2021/08/02 02:38:08;;;;;;;9.38;7.25;;;21.40;99.90;;;;;;5031453;28;20037;-65
2021/08/02 02:40:35;;;;;;;8.65;6.68;;;21.40;99.90;;;;;;5013520;28;20041;-67
2021/08/02 02:43:00;;;;;;;8.18;6.93;;;21.40;99.90;;;;;;5025024;28;20106;-65
2021/08/02 02:45:27;;;;;;;7.90;6.50;;;21.40;99.90;;;;;;5001571;28;20037;-65
2021/08/02 02:47:54;;;;;;;7.68;6.85;;;21.40;99.90;;;;;;5013894;28;20042;-65
2021/08/02 02:50:21;;;;;;;6.72;6.10;;;21.40;99.90;;;;;;5009208;28;20061;-64
2021/08/02 02:52:47;;;;;;;8.05;6.13;;;21.40;99.90;;;;;;5021869;28;20139;-64
2021/08/02 02:55:13;;;;;;;6.38;5.75;;;21.40;99.90;;;;;;5004003;28;20037;-65
2021/08/02 02:57:39;;;;;;;7.47;6.78;;;21.40;99.90;;;;;;5001836;28;20048;-65
2021/08/02 03:00:08;;;;;;;6.28;5.68;;;21.50;99.90;;;;;;5000266;28;20048;-65
2021/08/02 03:02:36;;;;;;;6.72;5.53;;;21.50;99.90;;;;;;5001430;28;20064;-65
2021/08/02 03:05:02;;;;;;;6.05;5.45;;;21.50;99.90;;;;;;5005443;28;20054;-65
2021/08/02 03:07:33;;;;;;;6.53;5.15;;;21.50;99.90;;;;;;5006072;28;20523;-65
2021/08/02 03:13:21;;;;;;;7.57;5.80;;;21.50;99.90;;;;;;4958481;28;20040;-65
2021/08/02 03:15:47;;;;;;;8.13;5.07;;;21.40;99.90;;;;;;5023030;28;20041;-65
2021/08/02 03:18:13;;;;;;;7.28;5.53;;;21.50;99.90;;;;;;5008293;28;20042;-65
2021/08/02 03:20:40;;;;;;;6.65;5.97;;;21.50;99.90;;;;;;5020313;28;20041;-65
2021/08/02 03:23:29;;;;;;;7.03;5.30;;;21.40;99.90;;;;;;5014222;28;21334;-65
2021/08/02 03:26:09;;;;;;;7.63;6.00;;;21.30;99.90;;;;;;4990084;28;20038;-65
2021/08/02 03:28:45;;;;;;;7.07;5.43;;;21.20;99.90;;;;;;5021102;28;20034;-66
2021/08/02 03:31:14;;;;;;;9.60;5.88;;;21.30;99.90;;;;;;5013335;28;20103;-65
2021/08/02 03:33:41;;;;;;;5.57;5.05;;;21.30;99.90;;;;;;5005376;28;20045;-65
2021/08/02 03:36:15;;;;;;;6.85;5.88;;;21.30;99.90;;;;;;5022687;28;20064;-65
2021/08/02 03:39:25;;;;;;;9.30;5.68;;;21.20;99.90;;;;;;4994734;28;20042;-65
2021/08/02 03:41:51;;;;;;;7.88;5.95;;;21.30;99.90;;;;;;4966552;28;20081;-65
2021/08/02 03:44:18;;;;;;;6.68;5.50;;;21.20;99.90;;;;;;5017562;28;20513;-64
2021/08/02 03:46:44;;;;;;;7.93;5.95;;;21.20;99.90;;;;;;5015094;28;20050;-65
2021/08/02 03:52:32;;;;;;;8.07;5.70;;;21.10;99.90;;;;;;4964005;28;20068;-65
2021/08/02 03:54:58;;;;;;;6.60;6.00;;;21.10;99.90;;;;;;5022681;28;20045;-65
2021/08/02 03:57:25;;;;;;;8.57;6.10;;;21.00;99.90;;;;;;5029612;28;20159;-65
2021/08/02 03:59:51;;;;;;;6.68;5.70;;;21.10;99.90;;;;;;5023542;28;20041;-64
2021/08/02 04:02:16;;;;;;;7.30;6.53;;;21.20;99.90;;;;;;5026846;28;20505;-61
2021/08/02 04:04:43;;;;;;;7.80;6.45;;;21.10;99.90;;;;;;5023353;28;20048;-65
2021/08/02 04:07:08;;;;;;;13.07;6.70;;;21.20;99.90;;;;;;5028489;28;20067;-65
2021/08/02 04:09:34;;;;;;;7.45;6.75;;;21.10;99.90;;;;;;5020530;28;20033;-65
2021/08/02 04:12:00;;;;;;;10.60;7.53;;;21.10;99.90;;;;;;5031673;28;20052;-64
2021/08/02 04:14:25;;;;;;;8.88;7.10;;;21.20;99.90;;;;;;5015035;28;20034;-65
2021/08/02 04:16:51;;;;;;;8.00;6.80;;;21.20;99.90;;;;;;5025414;28;20042;-65
2021/08/02 04:19:17;;;;;;;8.70;7.35;;;21.20;99.90;;;;;;5019811;28;20044;-61
2021/08/02 04:21:42;;;;;;;10.63;7.47;;;21.20;99.90;;;;;;5031004;28;20115;-65
2021/08/02 04:24:08;;;;;;;6.47;5.45;;;21.20;99.90;;;;;;5024147;28;20045;-65
2021/08/02 04:26:34;;;;;;;7.55;5.38;;;21.20;99.90;;;;;;5034283;28;20471;-65
2021/08/02 04:28:59;;;;;;;7.88;4.93;;;21.20;99.90;;;;;;5020163;28;20100;-65
2021/08/02 04:31:29;;;;;;;7.13;3.83;;;21.10;99.90;;;;;;5011511;28;20411;-65
2021/08/02 04:33:55;;;;;;;4.30;3.30;;;21.00;99.90;;;;;;4999905;28;20125;-65
2021/08/02 04:36:22;;;;;;;3.53;3.20;;;21.00;99.90;;;;;;5014937;28;20108;-65
2021/08/02 04:38:48;;;;;;;3.10;2.85;;;21.10;99.90;;;;;;5033003;28;20537;-65
2021/08/02 04:41:14;;;;;;;4.30;2.88;;;21.10;99.90;;;;;;5025013;28;20152;-65
2021/08/02 04:43:40;;;;;;;4.85;3.28;;;21.10;99.90;;;;;;5029147;28;20040;-65
2021/08/02 04:46:06;;;;;;;5.47;2.90;;;21.00;99.90;;;;;;5022352;28;20465;-65
2021/08/02 04:48:32;;;;;;;2.58;2.30;;;21.00;99.90;;;;;;5029451;28;20042;-65
2021/08/02 04:50:57;;;;;;;4.60;2.78;;;21.00;99.90;;;;;;5022711;28;20082;-65
2021/08/02 04:53:23;;;;;;;4.50;3.03;;;21.00;99.90;;;;;;5012237;28;20506;-65
2021/08/02 04:55:48;;;;;;;6.72;2.65;;;21.00;99.90;;;;;;5003580;28;20092;-65
2021/08/02 04:58:14;;;;;;;4.13;2.42;;;20.90;99.90;;;;;;5009601;28;20436;-65
2021/08/02 05:01:21;;;;;;;2.40;2.20;;;20.90;99.90;;;;;;5017492;28;20120;-65
2021/08/02 05:03:47;;;;;;;5.03;2.42;;;20.80;99.90;;;;;;4988069;28;20045;-64
2021/08/02 05:06:12;;;;;;;5.93;2.40;;;20.90;99.90;;;;;;5024124;28;20047;-65
2021/08/02 05:08:39;;;;;;;2.97;2.40;;;20.90;99.90;;;;;;5021808;28;20034;-65
2021/08/02 05:11:04;;;;;;;4.72;2.65;;;21.00;99.90;;;;;;5009801;28;20109;-65
2021/08/02 05:13:30;;;;;;;4.95;2.45;;;20.90;99.90;;;;;;5028000;28;20511;-65
2021/08/02 05:15:55;;;;;;;3.00;2.50;;;21.10;99.90;;;;;;5021915;28;20427;-65
2021/08/02 05:18:21;;;;;;;2.47;2.28;;;21.00;99.90;;;;;;5028363;28;20033;-65
2021/08/02 05:20:47;;;;;;;2.88;2.17;;;21.10;99.90;;;;;;5025352;28;20111;-63
2021/08/02 05:23:13;;;;;;;2.53;2.08;;;21.00;99.90;;;;;;5026213;28;20037;-65
2021/08/02 05:26:08;;;;;;;2.53;2.28;;;20.90;99.90;;;;;;5019960;28;20107;-65
2021/08/02 05:28:33;;;;;;;3.55;2.38;;;20.80;99.90;;;;;;4982950;28;20114;-66
2021/08/02 05:30:59;;;;;;;3.53;1.95;;;20.90;99.90;;;;;;5014858;28;20057;-65
2021/08/02 05:33:25;;;;;;;3.80;2.00;;;20.70;99.90;;;;;;5008637;28;20072;-65
2021/08/02 05:35:50;;;;;;;3.03;1.80;;;20.90;99.90;;;;;;5006719;28;20046;-65
2021/08/02 05:38:16;;;;;;;2.35;2.05;;;20.70;99.90;;;;;;4997813;28;20045;-65
2021/08/02 05:40:41;;;;;;;3.88;1.95;;;20.80;99.90;;;;;;5025822;28;20135;-66
2021/08/02 05:43:07;;;;;;;2.92;1.92;;;20.90;99.90;;;;;;5013103;28;20050;-66
2021/08/02 05:45:33;;;;;;;2.85;1.63;;;20.90;99.90;;;;;;5003538;28;20057;-65
2021/08/02 05:47:58;;;;;;;4.35;2.05;;;20.90;99.90;;;;;;5007581;28;20117;-65
2021/08/02 05:50:24;;;;;;;3.80;1.92;;;21.10;99.90;;;;;;5008401;28;20041;-65
2021/08/02 05:52:49;;;;;;;4.07;2.30;;;21.20;99.90;;;;;;5004694;28;20397;-65
2021/08/02 05:55:17;;;;;;;3.40;2.20;;;21.20;99.90;;;;;;5010919;28;20045;-65
2021/08/02 05:57:43;;;;;;;3.90;2.00;;;21.20;99.90;;;;;;5024386;28;20041;-65
2021/08/02 06:00:09;;;;;;;7.00;2.20;;;21.20;99.90;;;;;;5021488;28;20642;-65
2021/08/02 06:02:34;;;;;;;2.58;1.85;;;21.20;99.90;;;;;;5017831;28;20053;-66
2021/08/02 06:05:00;;;;;;;3.92;1.83;;;21.20;99.90;;;;;;5034420;28;20111;-66
2021/08/02 06:07:26;;;;;;;2.47;1.85;;;21.30;99.90;;;;;;5026962;28;20509;-65
2021/08/02 06:09:52;;;;;;;3.45;1.98;;;21.30;99.90;;;;;;5009945;28;20049;-64
2021/08/02 06:12:18;;;;;;;2.75;1.70;;;21.40;99.90;;;;;;5028191;28;20116;-64
2021/08/02 06:14:44;;;;;;;2.10;1.83;;;21.50;99.90;;;;;;5012721;28;20038;-65
2021/08/02 06:17:09;;;;;;;1.90;1.70;;;21.40;99.90;;;;;;5017085;28;20051;-66
2021/08/02 06:19:35;;;;;;;2.47;1.73;;;21.50;99.90;;;;;;5013185;28;20026;-65
2021/08/02 06:22:00;;;;;;;2.67;1.50;;;21.50;99.90;;;;;;5024307;28;20057;-65
2021/08/02 06:24:26;;;;;;;3.80;1.80;;;21.50;99.90;;;;;;5023119;28;20034;-65
2021/08/02 06:26:52;;;;;;;2.53;1.83;;;21.60;99.90;;;;;;5027639;28;20451;-64
2021/08/02 06:29:17;;;;;;;5.57;1.75;;;21.60;99.90;;;;;;5012464;28;20038;-62
2021/08/02 06:31:43;;;;;;;3.50;1.40;;;21.70;99.90;;;;;;5017749;28;20041;-68
2021/08/02 06:34:09;;;;;;;1.40;1.30;;;21.60;99.90;;;;;;4995979;28;20081;-65
2021/08/02 06:36:35;;;;;;;3.28;1.67;;;21.70;99.90;;;;;;5020833;28;20757;-65
2021/08/02 06:39:00;;;;;;;4.55;1.80;;;21.70;99.90;;;;;;5011211;28;20033;-65
2021/08/02 06:41:26;;;;;;;2.75;1.67;;;21.70;99.90;;;;;;5023717;28;20408;-65
2021/08/02 06:43:52;;;;;;;4.20;1.50;;;21.60;99.90;;;;;;5004583;28;20073;-65
2021/08/02 06:46:20;;;;;;;2.15;1.58;;;21.70;99.90;;;;;;5001605;28;20046;-61
2021/08/02 06:48:46;;;;;;;3.60;2.60;;;21.60;99.90;;;;;;5015998;28;20042;-65
2021/08/02 06:51:12;;;;;;;6.97;5.65;;;21.60;99.90;;;;;;5006034;28;20064;-66
2021/08/02 06:53:38;;;;;;;4.90;2.58;;;21.70;99.90;;;;;;5005666;28;20045;-66
2021/08/02 06:56:04;;;;;;;3.65;1.90;;;21.70;99.90;;;;;;5015533;28;20037;-66
2021/08/02 06:58:30;;;;;;;1.77;1.40;;;21.60;99.90;;;;;;5009602;28;20368;-65
2021/08/02 07:00:56;;;;;;;2.78;1.67;;;21.60;99.90;;;;;;5011539;28;20111;-65
2021/08/02 07:03:21;;;;;;;9.15;1.92;;;21.60;99.90;;;;;;5025284;28;20045;-65
2021/08/02 07:05:47;;;;;;;3.80;1.98;;;21.70;99.90;;;;;;5016752;28;20033;-65
2021/08/02 07:08:13;;;;;;;3.67;1.90;;;21.70;99.90;;;;;;5026830;28;20549;-66
2021/08/02 07:10:39;;;;;;;1.70;1.45;;;21.80;99.90;;;;;;5014709;28;20038;-65
2021/08/02 07:13:04;;;;;;;17.55;15.73;;;21.90;99.90;;;;;;5007898;28;20400;-65
2021/08/02 07:15:30;;;;;;;4.85;2.63;;;22.00;99.90;;;;;;5010216;28;20037;-66
2021/08/02 07:17:55;;;;;;;7.03;1.70;;;22.00;99.90;;;;;;5026577;28;20068;-65
2021/08/02 07:20:21;;;;;;;3.63;2.38;;;22.10;99.90;;;;;;5027375;28;20045;-65
2021/08/02 07:22:46;;;;;;;2.78;1.40;;;22.20;99.90;;;;;;5006729;28;20038;-66
2021/08/02 07:25:13;;;;;;;2.55;1.65;;;22.20;99.90;;;;;;5020812;28;20030;-66
2021/08/02 07:31:01;;;;;;;1.40;1.30;;;22.30;99.90;;;;;;4907689;28;20090;-66
2021/08/02 07:33:27;;;;;;;4.05;2.53;;;22.40;99.90;;;;;;5027082;28;20117;-66
2021/08/02 07:35:53;;;;;;;1.98;1.73;;;22.40;99.90;;;;;;5029824;28;20120;-65
2021/08/02 07:38:18;;;;;;;4.28;3.20;;;22.50;99.90;;;;;;5019942;28;20037;-66
2021/08/02 07:40:44;;;;;;;5.25;4.43;;;22.50;99.90;;;;;;5019517;28;20384;-66
2021/08/02 07:43:09;;;;;;;4.30;2.58;;;22.70;99.90;;;;;;5007558;28;20062;-66
2021/08/02 07:45:35;;;;;;;4.30;2.35;;;22.80;99.90;;;;;;5026892;28;20025;-65
2021/08/02 07:48:02;;;;;;;5.03;3.25;;;22.90;99.90;;;;;;5025252;28;20126;-65
2021/08/02 07:50:28;;;;;;;3.53;2.20;;;22.80;99.90;;;;;;5020216;28;20470;-66
2021/08/02 07:52:54;;;;;;;3.00;2.63;;;22.90;99.90;;;;;;5011474;28;20056;-65
2021/08/02 07:55:20;;;;;;;7.30;2.97;;;23.10;99.90;;;;;;5026089;28;20038;-65
2021/08/02 07:57:45;;;;;;;2.97;2.45;;;23.10;99.90;;;;;;5025802;28;20467;-66
2021/08/02 08:00:14;;;;;;;3.60;2.50;;;23.20;99.90;;;;;;5025152;28;20038;-66
2021/08/02 08:02:39;;;;;;;5.45;2.85;;;23.30;99.90;;;;;;5026729;28;20383;-66
2021/08/02 08:05:05;;;;;;;4.15;2.63;;;23.40;99.90;;;;;;5029191;28;20041;-66
2021/08/02 08:07:41;;;;;;;4.82;2.67;;;23.60;99.90;;;;;;5026526;28;20044;-66
2021/08/02 08:10:07;;;;;;;4.45;2.78;;;23.70;99.90;;;;;;5026600;28;20037;-66
2021/08/02 08:12:33;;;;;;;3.85;2.83;;;23.80;99.90;;;;;;5030099;28;20120;-66
2021/08/02 08:14:58;;;;;;;7.35;3.17;;;23.90;99.90;;;;;;5010371;28;20614;-66
2021/08/02 08:17:24;;;;;;;5.93;2.78;;;23.80;99.90;;;;;;4999771;28;20499;-67
2021/08/02 08:19:49;;;;;;;3.88;2.53;;;23.80;99.90;;;;;;5007250;28;20041;-64
2021/08/02 08:22:15;;;;;;;4.30;3.35;;;23.80;99.90;;;;;;5010159;28;20123;-66
2021/08/02 08:24:40;;;;;;;6.30;4.07;;;23.80;99.90;;;;;;5022074;28;20041;-66
2021/08/02 08:27:06;;;;;;;4.10;3.70;;;23.70;99.90;;;;;;5026730;28;20073;-66
2021/08/02 08:29:31;;;;;;;4.65;3.58;;;23.60;99.90;;;;;;5017323;28;20041;-66
2021/08/02 08:31:57;;;;;;;4.38;2.97;;;23.40;99.90;;;;;;5021565;28;20611;-66
2021/08/02 08:34:28;;;;;;;5.03;3.25;;;23.40;99.90;;;;;;5013358;28;20049;-66
2021/08/02 08:36:54;;;;;;;5.82;3.47;;;23.40;99.90;;;;;;5029355;28;20129;-66
2021/08/02 08:39:19;;;;;;;5.38;3.42;;;23.30;99.90;;;;;;5008490;28;20129;-64
2021/08/02 08:48:29;;;;;;;12.70;9.25;;;23.30;99.90;;;;;;4959714;28;20112;-65
2021/08/02 08:50:56;;;;;;;6.72;5.20;;;23.30;99.90;;;;;;5013044;28;20506;-65
2021/08/02 08:53:22;;;;;;;5.18;3.88;;;23.40;99.90;;;;;;5009281;28;20053;-65
2021/08/02 08:55:48;;;;;;;5.60;3.78;;;23.50;99.90;;;;;;5019544;28;20128;-66
2021/08/02 08:58:14;;;;;;;5.55;4.28;;;23.60;99.90;;;;;;5013620;28;20506;-66
2021/08/02 09:07:33;;;;;;;4.53;3.88;;;24.00;99.90;;;;;;4957874;28;20145;-66
2021/08/02 09:10:00;;;;;;;5.05;3.70;;;24.00;99.90;;;;;;5016325;28;20041;-67
2021/08/02 09:12:26;;;;;;;7.95;4.43;;;24.10;99.90;;;;;;5024046;28;20632;-66
2021/08/02 09:15:00;;;;;;;5.95;3.65;;;24.10;99.90;;;;;;5013892;28;20133;-66
2021/08/02 09:17:34;;;;;;;3.75;3.25;;;24.20;99.90;;;;;;4990744;28;20080;-66
2021/08/02 09:20:02;;;;;;;4.95;4.13;;;24.30;99.90;;;;;;5029331;28;20061;-66
2021/08/02 09:22:30;;;;;;;7.68;4.00;;;24.30;99.90;;;;;;5021321;28;20059;-66
2021/08/02 09:25:08;;;;;;;3.83;3.42;;;24.40;99.90;;;;;;5029635;28;20049;-66
2021/08/02 09:27:35;;;;;;;4.13;3.72;;;24.40;99.90;;;;;;5021422;28;20071;-66
2021/08/02 09:30:17;;;;;;;8.23;3.90;;;24.50;99.90;;;;;;5028444;28;20033;-66
2021/08/02 09:33:09;;;;;;;5.05;3.97;;;24.60;99.90;;;;;;5017839;28;20048;-66
2021/08/02 09:35:41;;;;;;;4.53;4.10;;;24.80;99.30;;;;;;4960478;28;20502;-66
2021/08/02 09:38:11;;;;;;;4.75;4.28;;;25.00;98.50;;;;;;5021187;28;20413;-66
2021/08/02 09:40:39;;;;;;;5.45;4.47;;;25.00;98.80;;;;;;5023902;28;20384;-66
2021/08/02 09:43:05;;;;;;;3.55;3.25;;;25.10;98.10;;;;;;5007851;28;20568;-66
2021/08/02 09:45:45;;;;;;;3.78;3.47;;;25.30;98.30;;;;;;5020813;28;20046;-66
2021/08/02 09:48:14;;;;;;;7.07;4.57;;;25.60;97.60;;;;;;5015475;28;20147;-66
2021/08/02 09:50:40;;;;;;;5.13;4.72;;;25.60;97.20;;;;;;5009156;28;20471;-66
2021/08/02 09:53:06;;;;;;;6.25;4.80;;;25.60;96.30;;;;;;5010962;28;20046;-66
2021/08/02 09:55:31;;;;;;;5.75;4.20;;;25.40;97.10;;;;;;5021038;28;20084;-66
2021/08/02 09:57:57;;;;;;;7.43;4.75;;;25.40;96.70;;;;;;5012148;28;20293;-66
2021/08/02 10:00:23;;;;;;;6.82;4.53;;;25.30;97.40;;;;;;5010141;28;20037;-65
2021/08/02 10:02:51;;;;;;;7.57;4.80;;;25.40;97.70;;;;;;5012065;28;20045;-66
2021/08/02 10:05:20;;;;;;;4.47;4.07;;;25.40;98.70;;;;;;5009934;28;20372;-66
2021/08/02 10:07:52;;;;;;;6.07;3.88;;;25.30;98.40;;;;;;5011105;28;20169;-66
2021/08/02 10:10:17;;;;;;;6.30;4.53;;;25.40;98.40;;;;;;5011872;28;20476;-66
2021/08/02 10:12:48;;;;;;;9.20;4.05;;;25.30;98.30;;;;;;5005592;28;20042;-66
2021/08/02 10:15:19;;;;;;;8.25;3.88;;;25.30;99.10;;;;;;5008488;28;20091;-66
2021/08/02 10:17:54;;;;;;;8.63;5.45;;;25.30;99.20;;;;;;5007840;28;20034;-67
2021/08/02 10:20:28;;;;;;;5.18;4.68;;;25.30;99.10;;;;;;5011539;28;20041;-66
2021/08/02 10:22:54;;;;;;;;;;;25.30;98.70;;;;;;5017180;28;20056;-66
2021/08/02 10:25:40;;;;;;;6.15;4.20;;;25.20;98.40;;;;;;5009229;28;19963;-66
2021/08/02 10:28:10;;;;;;;6.97;4.55;;;25.20;98.50;;;;;;4991019;28;20026;-67
2021/08/02 10:30:37;;;;;;;6.00;4.15;;;25.00;98.10;;;;;;5004984;28;20391;-66
2021/08/02 10:33:02;;;;;;;5.10;4.20;;;25.10;99.00;;;;;;5010789;28;20106;-66
2021/08/02 10:35:35;;;;;;;5.22;4.18;;;25.10;97.90;;;;;;5003443;28;20121;-66
2021/08/02 10:38:13;;;;;;;6.60;4.80;;;25.30;97.80;;;;;;5009386;28;20402;-66
2021/08/02 10:40:57;;;;;;;7.57;4.43;;;25.50;96.50;;;;;;5007065;28;20462;-66
2021/08/02 10:43:33;;;;;;;4.53;3.85;;;25.60;96.40;;;;;;5002484;28;20073;-65
2021/08/02 10:46:00;;;;;;;4.75;3.78;;;25.60;95.90;;;;;;5013359;28;20442;-66
2021/08/02 10:48:28;;;;;;;6.75;4.32;;;25.80;96.00;;;;;;5011689;28;20056;-66
2021/08/02 10:50:55;;;;;;;5.93;3.72;;;25.90;95.30;;;;;;5023465;28;20037;-66
2021/08/02 10:53:22;;;;;;;7.63;4.15;;;26.00;95.00;;;;;;5008966;28;20526;-62
2021/08/02 10:55:52;;;;;;;4.50;3.35;;;26.10;94.80;;;;;;5014151;28;20404;-66
2021/08/02 10:58:25;;;;;;;4.57;3.53;;;26.30;94.30;;;;;;5020906;28;20044;-66
2021/08/02 11:01:01;;;;;;;4.22;3.67;;;26.30;93.80;;;;;;5015975;28;20120;-67
2021/08/02 11:03:38;;;;;;;4.60;3.63;;;26.40;93.10;;;;;;4981850;28;20096;-66
2021/08/02 11:06:08;;;;;;;5.72;3.65;;;26.30;92.80;;;;;;5002244;28;20510;-67
2021/08/02 11:08:54;;;;;;;7.00;3.83;;;26.50;93.10;;;;;;5021417;28;20041;-66
2021/08/02 11:11:26;;;;;;;5.05;3.75;;;26.60;92.10;;;;;;5021731;28;20372;-66
2021/08/02 11:14:03;;;;;;;4.40;2.63;;;26.70;92.00;;;;;;5017726;28;20041;-67
2021/08/02 11:16:29;;;;;;;5.65;2.90;;;26.80;90.30;;;;;;5006105;28;20106;-66
2021/08/02 11:18:54;;;;;;;6.93;3.67;;;26.90;90.30;;;;;;5028817;28;20472;-66
2021/08/02 11:21:26;;;;;;;3.90;3.00;;;27.20;87.60;;;;;;5024209;28;20046;-66
2021/08/02 11:23:54;;;;;;;8.40;3.03;;;28.30;82.40;;;;;;5018809;28;20799;-66
2021/08/02 11:26:53;;;;;;;4.50;2.88;;;29.10;77.50;;;;;;5010965;28;20038;-67
2021/08/02 11:29:28;;;;;;;5.65;3.45;;;29.10;73.40;;;;;;4967217;28;20128;-67
2021/08/02 11:31:56;;;;;;;5.97;2.78;;;29.20;72.10;;;;;;5021038;28;20038;-67
2021/08/02 11:34:22;;;;;;;3.95;3.55;;;29.30;70.30;;;;;;5025478;28;20508;-67
2021/08/02 11:37:00;;;;;;;5.13;3.25;;;29.60;71.70;;;;;;5011127;28;20044;-67
2021/08/02 11:39:26;;;;;;;4.50;3.13;;;29.90;66.60;;;;;;5005988;28;20084;-64
2021/08/02 11:42:09;;;;;;;6.55;3.20;;;29.80;68.90;;;;;;5001819;28;20042;-67
2021/08/02 11:44:38;;;;;;;6.43;3.03;;;29.90;67.50;;;;;;5023029;28;20041;-67
2021/08/02 11:47:07;;;;;;;3.63;2.95;;;29.80;66.80;;;;;;4991840;28;20272;-68
2021/08/02 11:49:38;;;;;;;6.35;3.55;;;29.80;66.10;;;;;;5011380;28;20522;-68
2021/08/02 11:52:05;;;;;;;7.85;5.80;;;30.10;63.30;;;;;;5001335;28;20042;-66
2021/08/02 11:54:30;;;;;;;6.43;5.00;;;30.20;62.80;;;;;;5007049;28;20053;-66
2021/08/02 11:56:56;;;;;;;5.55;4.20;;;30.90;62.00;;;;;;4988683;28;22538;-67
2021/08/02 11:59:24;;;;;;;6.78;4.53;;;31.30;59.30;;;;;;5025621;28;20110;-67
2021/08/02 12:01:52;;;;;;;6.10;4.00;;;31.30;58.80;;;;;;5026622;28;20049;-66
2021/08/02 12:04:19;;;;;;;7.07;4.18;;;31.10;59.10;;;;;;5005815;28;20086;-66
2021/08/02 12:06:58;;;;;;;4.20;3.58;;;31.00;60.50;;;;;;5009973;28;20042;-66
2021/08/02 12:09:38;;;;;;;6.38;4.25;;;31.30;57.40;;;;;;5019478;28;20069;-66
2021/08/02 12:12:06;;;;;;;7.70;4.88;;;32.20;54.70;;;;;;5018491;28;20045;-66
2021/08/02 12:14:34;;;;;;;5.35;3.63;;;;;;;;;;5017809;28;20034;-66
2021/08/02 12:17:03;;;;;;;6.68;4.20;;;;;;;;;;5030398;28;20163;-66
2021/08/02 12:19:30;;;;;;;7.65;4.78;;;33.30;61.30;;;;;;5023394;28;20037;-66
2021/08/02 12:21:57;;;;;;;5.53;4.88;;;33.10;56.60;;;;;;5010831;28;20053;-66
2021/08/02 12:24:23;;;;;;;7.18;4.50;;;;;;;;;;5009679;28;20038;-66
2021/08/02 12:26:50;;;;;;;6.38;3.90;;;;;;;;;;5028927;28;20151;-67
2021/08/02 12:29:36;;;;;;;8.35;4.53;;;33.40;51.00;;;;;;5020439;28;20033;-66
2021/08/02 12:32:03;;;;;;;6.13;4.20;;;33.40;52.70;;;;;;5021106;28;20466;-66
2021/08/02 12:34:30;;;;;;;7.28;4.75;;;;;;;;;;4985726;28;20053;-66
2021/08/02 12:36:57;;;;;;;5.35;4.68;;;;;;;;;;5004985;28;20434;-66
2021/08/02 12:39:29;;;;;;;5.35;4.50;;;;;;;;;;5020994;28;20034;-67
2021/08/02 12:41:55;;;;;;;6.82;4.65;;;;;;;;;;5030192;28;20128;-66
2021/08/02 12:44:21;;;;;;;5.25;4.20;;;34.30;70.50;;;;;;5020278;28;20076;-66
2021/08/02 12:46:47;;;;;;;12.68;4.32;;;34.30;43.50;;;;;;5031884;28;20491;-66
2021/08/02 12:49:12;;;;;;;3.60;3.30;;;34.40;54.30;;;;;;5023715;28;20491;-66
2021/08/02 12:51:38;;;;;;;5.78;3.92;;;33.10;57.90;;;;;;5024828;28;20083;-64
2021/08/02 12:54:04;;;;;;;7.43;4.43;;;32.20;68.10;;;;;;5025883;28;20493;-67
2021/08/02 12:56:29;;;;;;;7.40;4.18;;;31.50;64.90;;;;;;5019459;28;20468;-66
2021/08/02 12:59:01;;;;;;;7.43;4.43;;;34.50;44.80;;;;;;5020794;28;20056;-67
2021/08/02 13:04:48;;;;;;;6.60;3.85;;;34.90;41.20;;;;;;4950702;28;20522;-66
2021/08/02 13:07:14;;;;;;;4.15;3.72;;;35.20;41.50;;;;;;5027073;28;20128;-65
2021/08/02 13:09:40;;;;;;;5.43;3.97;;;35.60;39.50;;;;;;5023835;28;20078;-66
2021/08/02 13:12:06;;;;;;;5.88;4.07;;;35.80;51.40;;;;;;5029586;28;20052;-67
2021/08/02 13:14:31;;;;;;;4.70;4.40;;;35.80;39.20;;;;;;5022639;28;22111;-67
2021/08/02 13:16:57;;;;;;;5.00;4.00;;;35.50;39.00;;;;;;5028203;28;20040;-66
2021/08/02 13:19:22;;;;;;;5.55;5.05;;;36.30;38.80;;;;;;5025893;28;20034;-67
2021/08/02 13:21:48;;;;;;;7.43;4.80;;;36.10;37.50;;;;;;5022789;28;20419;-66
2021/08/02 13:26:56;;;;;;;6.35;5.22;;;34.30;41.30;;;;;;5026784;28;20034;-66
2021/08/02 13:27:01;;;;;;;5.55;4.47;;;33.20;43.70;;;;;;5016619;28;20504;-67
2021/08/02 13:29:35;;;;;;;4.72;4.25;;;32.80;47.50;;;;;;5009903;28;20036;-66
2021/08/02 13:32:04;;;;;;;4.40;3.67;;;33.70;43.90;;;;;;5016510;28;20391;-66